sensor_id;sensor_type;location;lat;lon;timestamp;P1;durP1;ratioP1;P2;durP2;ratioP2
74630;SDS011;63138;55.082;38.804;2023-03-13T00:00:19;3.10;;;2.38;;
74630;SDS011;63138;55.082;38.804;2023-03-13T00:02:46;2.80;;;2.40;;
74630;SDS011;63138;55.082;38.804;2023-03-13T00:05:12;3.07;;;2.13;;
74630;SDS011;63138;55.082;38.804;2023-03-13T00:07:38;3.60;;;2.15;;
74630;SDS011;63138;55.082;38.804;2023-03-13T00:10:04;3.72;;;2.40;;
74630;SDS011;63138;55.082;38.804;2023-03-13T00:12:31;3.65;;;2.20;;
74630;SDS011;63138;55.082;38.804;2023-03-13T00:14:57;3.65;;;2.42;;
74630;SDS011;63138;55.082;38.804;2023-03-13T00:17:23;3.15;;;2.20;;
74630;SDS011;63138;55.082;38.804;2023-03-13T00:19:49;3.30;;;2.35;;
74630;SDS011;63138;55.082;38.804;2023-03-13T00:22:15;2.80;;;2.22;;
74630;SDS011;63138;55.082;38.804;2023-03-13T00:24:41;5.18;;;2.72;;
74630;SDS011;63138;55.082;38.804;2023-03-13T00:27:07;3.00;;;2.20;;
74630;SDS011;63138;55.082;38.804;2023-03-13T00:29:33;2.90;;;2.17;;
74630;SDS011;63138;55.082;38.804;2023-03-13T00:32:00;3.03;;;2.00;;
74630;SDS011;63138;55.082;38.804;2023-03-13T00:34:26;3.33;;;2.55;;
74630;SDS011;63138;55.082;38.804;2023-03-13T00:36:52;4.25;;;2.40;;
74630;SDS011;63138;55.082;38.804;2023-03-13T00:39:20;2.57;;;1.83;;
74630;SDS011;63138;55.082;38.804;2023-03-13T00:41:46;2.65;;;1.55;;
74630;SDS011;63138;55.082;38.804;2023-03-13T00:44:12;3.00;;;2.50;;
74630;SDS011;63138;55.082;38.804;2023-03-13T00:46:39;3.47;;;2.38;;
74630;SDS011;63138;55.082;38.804;2023-03-13T00:49:05;3.95;;;2.33;;
74630;SDS011;63138;55.082;38.804;2023-03-13T00:51:32;3.03;;;2.27;;
74630;SDS011;63138;55.082;38.804;2023-03-13T00:53:58;3.08;;;2.35;;
74630;SDS011;63138;55.082;38.804;2023-03-13T00:56:25;5.55;;;2.38;;
74630;SDS011;63138;55.082;38.804;2023-03-13T00:58:51;3.00;;;1.95;;
74630;SDS011;63138;55.082;38.804;2023-03-13T01:03:52;3.20;;;2.08;;
74630;SDS011;63138;55.082;38.804;2023-03-13T01:06:20;5.82;;;2.50;;
74630;SDS011;63138;55.082;38.804;2023-03-13T01:08:48;3.72;;;2.30;;
74630;SDS011;63138;55.082;38.804;2023-03-13T01:11:15;2.97;;;2.17;;
74630;SDS011;63138;55.082;38.804;2023-03-13T01:13:44;2.90;;;2.20;;
74630;SDS011;63138;55.082;38.804;2023-03-13T01:16:18;2.80;;;2.20;;
74630;SDS011;63138;55.082;38.804;2023-03-13T01:18:47;3.03;;;2.10;;
74630;SDS011;63138;55.082;38.804;2023-03-13T01:21:20;3.88;;;2.25;;
74630;SDS011;63138;55.082;38.804;2023-03-13T01:23:47;3.15;;;2.30;;
74630;SDS011;63138;55.082;38.804;2023-03-13T01:26:14;3.60;;;2.00;;
74630;SDS011;63138;55.082;38.804;2023-03-13T01:28:41;3.10;;;1.75;;
74630;SDS011;63138;55.082;38.804;2023-03-13T01:33:52;2.90;;;2.00;;
74630;SDS011;63138;55.082;38.804;2023-03-13T01:36:21;2.90;;;1.73;;
74630;SDS011;63138;55.082;38.804;2023-03-13T01:38:47;5.93;;;2.43;;
74630;SDS011;63138;55.082;38.804;2023-03-13T01:41:15;2.78;;;2.13;;
74630;SDS011;63138;55.082;38.804;2023-03-13T01:43:41;3.17;;;2.30;;
74630;SDS011;63138;55.082;38.804;2023-03-13T01:52:06;3.37;;;2.43;;
74630;SDS011;63138;55.082;38.804;2023-03-13T01:54:58;6.20;;;2.53;;
74630;SDS011;63138;55.082;38.804;2023-03-13T01:57:45;3.10;;;2.38;;
74630;SDS011;63138;55.082;38.804;2023-03-13T02:00:21;4.15;;;2.25;;
74630;SDS011;63138;55.082;38.804;2023-03-13T02:02:50;2.65;;;1.95;;
74630;SDS011;63138;55.082;38.804;2023-03-13T02:05:19;2.97;;;2.20;;
74630;SDS011;63138;55.082;38.804;2023-03-13T02:07:53;3.00;;;2.10;;
74630;SDS011;63138;55.082;38.804;2023-03-13T02:10:23;3.10;;;2.80;;
74630;SDS011;63138;55.082;38.804;2023-03-13T02:12:51;5.25;;;2.40;;
74630;SDS011;63138;55.082;38.804;2023-03-13T02:15:17;3.60;;;2.33;;
74630;SDS011;63138;55.082;38.804;2023-03-13T02:17:46;3.28;;;2.28;;
74630;SDS011;63138;55.082;38.804;2023-03-13T02:20:16;2.67;;;2.05;;
74630;SDS011;63138;55.082;38.804;2023-03-13T02:22:55;3.00;;;2.17;;
74630;SDS011;63138;55.082;38.804;2023-03-13T02:25:47;3.55;;;2.42;;
74630;SDS011;63138;55.082;38.804;2023-03-13T02:30:58;3.13;;;2.65;;
74630;SDS011;63138;55.082;38.804;2023-03-13T02:33:25;2.65;;;1.90;;
74630;SDS011;63138;55.082;38.804;2023-03-13T02:35:57;4.45;;;2.20;;
74630;SDS011;63138;55.082;38.804;2023-03-13T02:38:26;2.80;;;2.17;;
74630;SDS011;63138;55.082;38.804;2023-03-13T02:40:54;3.00;;;2.15;;
74630;SDS011;63138;55.082;38.804;2023-03-13T02:48:38;2.85;;;2.00;;
74630;SDS011;63138;55.082;38.804;2023-03-13T02:51:39;2.63;;;2.20;;
74630;SDS011;63138;55.082;38.804;2023-03-13T02:54:04;3.90;;;2.38;;
74630;SDS011;63138;55.082;38.804;2023-03-13T02:59:45;2.88;;;2.10;;
74630;SDS011;63138;55.082;38.804;2023-03-13T03:02:13;2.80;;;2.05;;
74630;SDS011;63138;55.082;38.804;2023-03-13T03:04:39;4.20;;;2.77;;
74630;SDS011;63138;55.082;38.804;2023-03-13T03:07:04;2.90;;;2.33;;
74630;SDS011;63138;55.082;38.804;2023-03-13T03:09:31;3.17;;;2.53;;
74630;SDS011;63138;55.082;38.804;2023-03-13T03:12:02;3.42;;;2.20;;
74630;SDS011;63138;55.082;38.804;2023-03-13T03:14:29;2.95;;;2.25;;
74630;SDS011;63138;55.082;38.804;2023-03-13T03:16:55;2.78;;;2.20;;
74630;SDS011;63138;55.082;38.804;2023-03-13T03:19:23;3.42;;;2.20;;
74630;SDS011;63138;55.082;38.804;2023-03-13T03:21:49;3.83;;;2.50;;
74630;SDS011;63138;55.082;38.804;2023-03-13T03:24:17;2.58;;;1.98;;
74630;SDS011;63138;55.082;38.804;2023-03-13T03:26:43;3.40;;;2.50;;
74630;SDS011;63138;55.082;38.804;2023-03-13T03:29:16;3.10;;;2.35;;
74630;SDS011;63138;55.082;38.804;2023-03-13T03:31:44;3.10;;;2.38;;
74630;SDS011;63138;55.082;38.804;2023-03-13T03:34:11;4.23;;;2.10;;
74630;SDS011;63138;55.082;38.804;2023-03-13T03:36:37;3.00;;;2.30;;
74630;SDS011;63138;55.082;38.804;2023-03-13T03:39:03;3.80;;;3.10;;
74630;SDS011;63138;55.082;38.804;2023-03-13T03:41:29;3.15;;;2.03;;
74630;SDS011;63138;55.082;38.804;2023-03-13T03:43:58;4.07;;;2.60;;
74630;SDS011;63138;55.082;38.804;2023-03-13T03:46:30;3.88;;;2.83;;
74630;SDS011;63138;55.082;38.804;2023-03-13T03:48:56;4.32;;;2.80;;
74630;SDS011;63138;55.082;38.804;2023-03-13T03:51:22;3.17;;;2.47;;
74630;SDS011;63138;55.082;38.804;2023-03-13T03:53:49;3.83;;;2.67;;
74630;SDS011;63138;55.082;38.804;2023-03-13T03:56:15;2.95;;;2.53;;
74630;SDS011;63138;55.082;38.804;2023-03-13T03:58:46;3.03;;;2.40;;
74630;SDS011;63138;55.082;38.804;2023-03-13T04:01:21;3.38;;;2.35;;
74630;SDS011;63138;55.082;38.804;2023-03-13T04:03:47;4.97;;;2.80;;
74630;SDS011;63138;55.082;38.804;2023-03-13T04:06:13;5.38;;;2.75;;
74630;SDS011;63138;55.082;38.804;2023-03-13T04:08:40;3.28;;;2.53;;
74630;SDS011;63138;55.082;38.804;2023-03-13T04:11:07;4.10;;;2.53;;
74630;SDS011;63138;55.082;38.804;2023-03-13T04:13:37;3.00;;;2.15;;
74630;SDS011;63138;55.082;38.804;2023-03-13T04:16:09;4.67;;;2.67;;
74630;SDS011;63138;55.082;38.804;2023-03-13T04:18:35;2.80;;;2.50;;
74630;SDS011;63138;55.082;38.804;2023-03-13T04:21:02;4.03;;;2.63;;
74630;SDS011;63138;55.082;38.804;2023-03-13T04:23:37;2.70;;;2.30;;
74630;SDS011;63138;55.082;38.804;2023-03-13T04:26:04;3.27;;;2.40;;
74630;SDS011;63138;55.082;38.804;2023-03-13T04:28:30;4.47;;;2.70;;
74630;SDS011;63138;55.082;38.804;2023-03-13T04:30:57;2.90;;;2.00;;
74630;SDS011;63138;55.082;38.804;2023-03-13T04:33:41;3.50;;;2.72;;
74630;SDS011;63138;55.082;38.804;2023-03-13T04:36:16;3.53;;;2.50;;
74630;SDS011;63138;55.082;38.804;2023-03-13T04:39:01;5.53;;;2.78;;
74630;SDS011;63138;55.082;38.804;2023-03-13T04:41:54;4.57;;;2.80;;
74630;SDS011;63138;55.082;38.804;2023-03-13T04:44:42;4.90;;;3.38;;
74630;SDS011;63138;55.082;38.804;2023-03-13T04:47:41;3.85;;;2.80;;
74630;SDS011;63138;55.082;38.804;2023-03-13T04:50:25;3.33;;;2.47;;
74630;SDS011;63138;55.082;38.804;2023-03-13T04:53:09;2.88;;;2.58;;
74630;SDS011;63138;55.082;38.804;2023-03-13T04:56:01;3.40;;;2.33;;
74630;SDS011;63138;55.082;38.804;2023-03-13T04:58:42;3.80;;;2.65;;
74630;SDS011;63138;55.082;38.804;2023-03-13T05:01:32;2.80;;;2.28;;
74630;SDS011;63138;55.082;38.804;2023-03-13T05:03:59;2.63;;;2.20;;
74630;SDS011;63138;55.082;38.804;2023-03-13T05:06:43;2.92;;;2.08;;
74630;SDS011;63138;55.082;38.804;2023-03-13T05:09:29;3.17;;;2.80;;
74630;SDS011;63138;55.082;38.804;2023-03-13T05:12:19;2.80;;;2.35;;
74630;SDS011;63138;55.082;38.804;2023-03-13T05:15:05;3.30;;;3.00;;
74630;SDS011;63138;55.082;38.804;2023-03-13T05:17:55;3.50;;;2.58;;
74630;SDS011;63138;55.082;38.804;2023-03-13T05:20:29;4.07;;;3.08;;
74630;SDS011;63138;55.082;38.804;2023-03-13T05:23:21;3.67;;;2.60;;
74630;SDS011;63138;55.082;38.804;2023-03-13T05:26:15;3.65;;;2.50;;
74630;SDS011;63138;55.082;38.804;2023-03-13T05:29:02;2.92;;;2.63;;
74630;SDS011;63138;55.082;38.804;2023-03-13T05:31:40;3.45;;;2.55;;
74630;SDS011;63138;55.082;38.804;2023-03-13T05:34:21;3.50;;;2.87;;
74630;SDS011;63138;55.082;38.804;2023-03-13T05:37:13;3.25;;;2.92;;
74630;SDS011;63138;55.082;38.804;2023-03-13T05:39:42;3.45;;;2.50;;
74630;SDS011;63138;55.082;38.804;2023-03-13T05:42:38;3.17;;;2.50;;
74630;SDS011;63138;55.082;38.804;2023-03-13T05:45:17;3.05;;;2.53;;
74630;SDS011;63138;55.082;38.804;2023-03-13T05:48:09;2.67;;;2.43;;
74630;SDS011;63138;55.082;38.804;2023-03-13T05:50:50;3.67;;;2.50;;
74630;SDS011;63138;55.082;38.804;2023-03-13T05:53:18;2.97;;;2.53;;
74630;SDS011;63138;55.082;38.804;2023-03-13T05:56:04;3.83;;;3.08;;
74630;SDS011;63138;55.082;38.804;2023-03-13T05:58:39;4.90;;;3.30;;
74630;SDS011;63138;55.082;38.804;2023-03-13T06:01:12;3.47;;;3.00;;
74630;SDS011;63138;55.082;38.804;2023-03-13T06:03:50;5.70;;;5.30;;
74630;SDS011;63138;55.082;38.804;2023-03-13T06:06:17;6.28;;;5.88;;
74630;SDS011;63138;55.082;38.804;2023-03-13T06:08:47;6.25;;;5.80;;
74630;SDS011;63138;55.082;38.804;2023-03-13T06:11:13;5.40;;;5.03;;
74630;SDS011;63138;55.082;38.804;2023-03-13T06:13:40;6.43;;;5.90;;
74630;SDS011;63138;55.082;38.804;2023-03-13T06:16:17;6.00;;;5.45;;
74630;SDS011;63138;55.082;38.804;2023-03-13T06:18:44;5.95;;;5.55;;
74630;SDS011;63138;55.082;38.804;2023-03-13T06:21:10;6.07;;;5.68;;
74630;SDS011;63138;55.082;38.804;2023-03-13T06:23:36;7.00;;;6.50;;
74630;SDS011;63138;55.082;38.804;2023-03-13T06:26:02;5.88;;;5.47;;
74630;SDS011;63138;55.082;38.804;2023-03-13T06:28:28;6.40;;;6.00;;
74630;SDS011;63138;55.082;38.804;2023-03-13T06:30:54;6.17;;;5.77;;
74630;SDS011;63138;55.082;38.804;2023-03-13T06:33:25;6.60;;;6.20;;
74630;SDS011;63138;55.082;38.804;2023-03-13T06:35:52;7.28;;;6.57;;
74630;SDS011;63138;55.082;38.804;2023-03-13T06:38:18;6.53;;;6.13;;
74630;SDS011;63138;55.082;38.804;2023-03-13T06:40:43;6.10;;;5.70;;
74630;SDS011;63138;55.082;38.804;2023-03-13T06:43:09;6.13;;;5.72;;
74630;SDS011;63138;55.082;38.804;2023-03-13T06:45:35;6.10;;;5.70;;
74630;SDS011;63138;55.082;38.804;2023-03-13T06:48:02;6.20;;;5.72;;
74630;SDS011;63138;55.082;38.804;2023-03-13T06:50:28;5.97;;;5.57;;
74630;SDS011;63138;55.082;38.804;2023-03-13T06:52:54;6.28;;;5.68;;
74630;SDS011;63138;55.082;38.804;2023-03-13T06:55:21;5.75;;;5.25;;
74630;SDS011;63138;55.082;38.804;2023-03-13T06:57:51;5.93;;;5.43;;
74630;SDS011;63138;55.082;38.804;2023-03-13T07:00:18;6.38;;;5.88;;
74630;SDS011;63138;55.082;38.804;2023-03-13T07:02:44;5.80;;;5.30;;
74630;SDS011;63138;55.082;38.804;2023-03-13T07:05:10;6.00;;;5.50;;
74630;SDS011;63138;55.082;38.804;2023-03-13T07:07:36;6.07;;;5.68;;
74630;SDS011;63138;55.082;38.804;2023-03-13T07:10:02;6.00;;;5.60;;
74630;SDS011;63138;55.082;38.804;2023-03-13T07:12:29;6.18;;;5.78;;
74630;SDS011;63138;55.082;38.804;2023-03-13T07:14:55;6.07;;;5.68;;
74630;SDS011;63138;55.082;38.804;2023-03-13T07:17:21;5.97;;;5.47;;
74630;SDS011;63138;55.082;38.804;2023-03-13T07:19:46;7.43;;;5.60;;
74630;SDS011;63138;55.082;38.804;2023-03-13T07:22:12;6.13;;;5.63;;
74630;SDS011;63138;55.082;38.804;2023-03-13T07:24:38;5.77;;;5.37;;
74630;SDS011;63138;55.082;38.804;2023-03-13T07:27:04;6.72;;;6.20;;
74630;SDS011;63138;55.082;38.804;2023-03-13T07:29:30;6.20;;;5.80;;
74630;SDS011;63138;55.082;38.804;2023-03-13T07:31:56;6.17;;;5.67;;
74630;SDS011;63138;55.082;38.804;2023-03-13T07:34:24;6.45;;;5.95;;
74630;SDS011;63138;55.082;38.804;2023-03-13T07:36:50;6.13;;;5.70;;
74630;SDS011;63138;55.082;38.804;2023-03-13T07:39:16;6.38;;;5.88;;
74630;SDS011;63138;55.082;38.804;2023-03-13T07:41:42;5.38;;;4.97;;
74630;SDS011;63138;55.082;38.804;2023-03-13T07:44:09;6.75;;;6.25;;
74630;SDS011;63138;55.082;38.804;2023-03-13T07:46:34;6.30;;;5.80;;
74630;SDS011;63138;55.082;38.804;2023-03-13T07:49:00;6.30;;;5.90;;
74630;SDS011;63138;55.082;38.804;2023-03-13T07:51:26;6.60;;;6.07;;
74630;SDS011;63138;55.082;38.804;2023-03-13T07:53:52;5.78;;;5.28;;
74630;SDS011;63138;55.082;38.804;2023-03-13T07:56:22;5.72;;;5.32;;
74630;SDS011;63138;55.082;38.804;2023-03-13T07:58:48;6.30;;;5.80;;
74630;SDS011;63138;55.082;38.804;2023-03-13T08:01:25;6.37;;;5.77;;
74630;SDS011;63138;55.082;38.804;2023-03-13T08:03:52;6.32;;;5.85;;
74630;SDS011;63138;55.082;38.804;2023-03-13T08:06:20;5.97;;;5.57;;
74630;SDS011;63138;55.082;38.804;2023-03-13T08:08:48;6.30;;;5.85;;
74630;SDS011;63138;55.082;38.804;2023-03-13T08:11:16;4.75;;;4.18;;
74630;SDS011;63138;55.082;38.804;2023-03-13T08:13:42;6.40;;;5.90;;
74630;SDS011;63138;55.082;38.804;2023-03-13T08:16:09;6.53;;;6.03;;
74630;SDS011;63138;55.082;38.804;2023-03-13T08:18:47;7.05;;;6.45;;
74630;SDS011;63138;55.082;38.804;2023-03-13T08:21:16;6.43;;;5.93;;
74630;SDS011;63138;55.082;38.804;2023-03-13T08:23:46;7.00;;;6.40;;
74630;SDS011;63138;55.082;38.804;2023-03-13T08:26:15;6.30;;;5.90;;
74630;SDS011;63138;55.082;38.804;2023-03-13T08:28:44;6.35;;;5.85;;
74630;SDS011;63138;55.082;38.804;2023-03-13T08:33:37;6.13;;;5.65;;
74630;SDS011;63138;55.082;38.804;2023-03-13T08:36:09;6.18;;;5.78;;
74630;SDS011;63138;55.082;38.804;2023-03-13T08:38:50;6.20;;;5.70;;
74630;SDS011;63138;55.082;38.804;2023-03-13T08:41:18;5.63;;;5.22;;
74630;SDS011;63138;55.082;38.804;2023-03-13T08:43:51;6.18;;;5.78;;
74630;SDS011;63138;55.082;38.804;2023-03-13T08:46:17;4.30;;;3.90;;
74630;SDS011;63138;55.082;38.804;2023-03-13T08:48:43;6.30;;;5.90;;
74630;SDS011;63138;55.082;38.804;2023-03-13T08:51:10;6.38;;;5.97;;
74630;SDS011;63138;55.082;38.804;2023-03-13T08:53:37;6.70;;;6.20;;
74630;SDS011;63138;55.082;38.804;2023-03-13T08:56:04;6.65;;;6.15;;
74630;SDS011;63138;55.082;38.804;2023-03-13T08:58:30;5.70;;;5.20;;
74630;SDS011;63138;55.082;38.804;2023-03-13T09:01:16;6.30;;;5.80;;
74630;SDS011;63138;55.082;38.804;2023-03-13T09:03:43;6.30;;;5.80;;
74630;SDS011;63138;55.082;38.804;2023-03-13T09:06:09;5.53;;;5.03;;
74630;SDS011;63138;55.082;38.804;2023-03-13T09:08:36;4.72;;;4.28;;
74630;SDS011;63138;55.082;38.804;2023-03-13T09:11:04;5.40;;;5.00;;
74630;SDS011;63138;55.082;38.804;2023-03-13T09:13:33;3.85;;;3.03;;
74630;SDS011;63138;55.082;38.804;2023-03-13T09:16:02;5.97;;;5.47;;
74630;SDS011;63138;55.082;38.804;2023-03-13T09:18:30;6.60;;;5.93;;
74630;SDS011;63138;55.082;38.804;2023-03-13T09:20:55;6.80;;;6.30;;
74630;SDS011;63138;55.082;38.804;2023-03-13T09:23:22;6.27;;;5.77;;
74630;SDS011;63138;55.082;38.804;2023-03-13T09:25:50;5.70;;;5.22;;
74630;SDS011;63138;55.082;38.804;2023-03-13T09:28:18;4.78;;;4.38;;
74630;SDS011;63138;55.082;38.804;2023-03-13T09:30:43;6.03;;;5.63;;
74630;SDS011;63138;55.082;38.804;2023-03-13T09:33:09;5.55;;;5.15;;
74630;SDS011;63138;55.082;38.804;2023-03-13T09:35:37;5.82;;;5.32;;
74630;SDS011;63138;55.082;38.804;2023-03-13T09:38:03;3.95;;;3.58;;
74630;SDS011;63138;55.082;38.804;2023-03-13T09:40:30;4.97;;;4.57;;
74630;SDS011;63138;55.082;38.804;2023-03-13T09:46:15;6.07;;;5.57;;
74630;SDS011;63138;55.082;38.804;2023-03-13T09:48:48;5.10;;;4.70;;
74630;SDS011;63138;55.082;38.804;2023-03-13T09:51:21;5.70;;;5.20;;
74630;SDS011;63138;55.082;38.804;2023-03-13T09:54:02;5.77;;;5.27;;
74630;SDS011;63138;55.082;38.804;2023-03-13T09:59:50;4.90;;;4.50;;
74630;SDS011;63138;55.082;38.804;2023-03-13T10:02:26;3.67;;;2.50;;
74630;SDS011;63138;55.082;38.804;2023-03-13T10:04:56;3.40;;;3.05;;
74630;SDS011;63138;55.082;38.804;2023-03-13T10:07:36;3.53;;;2.90;;
74630;SDS011;63138;55.082;38.804;2023-03-13T10:10:03;4.07;;;3.78;;
74630;SDS011;63138;55.082;38.804;2023-03-13T10:12:37;4.38;;;3.25;;
74630;SDS011;63138;55.082;38.804;2023-03-13T10:18:15;4.80;;;4.40;;
74630;SDS011;63138;55.082;38.804;2023-03-13T10:20:47;5.20;;;3.97;;
74630;SDS011;63138;55.082;38.804;2023-03-13T10:25:51;5.10;;;4.70;;
74630;SDS011;63138;55.082;38.804;2023-03-13T10:28:18;5.00;;;4.60;;
74630;SDS011;63138;55.082;38.804;2023-03-13T10:30:48;4.72;;;4.32;;
74630;SDS011;63138;55.082;38.804;2023-03-13T10:33:20;5.10;;;4.70;;
74630;SDS011;63138;55.082;38.804;2023-03-13T10:35:59;4.53;;;4.13;;
74630;SDS011;63138;55.082;38.804;2023-03-13T10:38:45;4.35;;;3.95;;
74630;SDS011;63138;55.082;38.804;2023-03-13T10:41:29;4.60;;;4.20;;
74630;SDS011;63138;55.082;38.804;2023-03-13T10:44:01;4.30;;;3.90;;
74630;SDS011;63138;55.082;38.804;2023-03-13T10:46:30;4.70;;;4.15;;
74630;SDS011;63138;55.082;38.804;2023-03-13T10:49:03;3.95;;;2.70;;
74630;SDS011;63138;55.082;38.804;2023-03-13T10:52:00;4.50;;;4.10;;
74630;SDS011;63138;55.082;38.804;2023-03-13T10:54:28;4.70;;;4.30;;
74630;SDS011;63138;55.082;38.804;2023-03-13T10:59:43;4.90;;;3.17;;
74630;SDS011;63138;55.082;38.804;2023-03-13T11:02:32;4.60;;;4.20;;
74630;SDS011;63138;55.082;38.804;2023-03-13T11:05:01;3.25;;;2.70;;
74630;SDS011;63138;55.082;38.804;2023-03-13T11:07:47;3.93;;;3.47;;
74630;SDS011;63138;55.082;38.804;2023-03-13T11:10:18;4.30;;;3.90;;
74630;SDS011;63138;55.082;38.804;2023-03-13T11:12:50;4.40;;;4.05;;
74630;SDS011;63138;55.082;38.804;2023-03-13T11:18:17;3.45;;;3.13;;
74630;SDS011;63138;55.082;38.804;2023-03-13T11:20:53;3.67;;;2.70;;
74630;SDS011;63138;55.082;38.804;2023-03-13T11:33:46;3.50;;;3.20;;
74630;SDS011;63138;55.082;38.804;2023-03-13T11:39:09;3.05;;;2.75;;
74630;SDS011;63138;55.082;38.804;2023-03-13T11:51:11;3.55;;;2.75;;
74630;SDS011;63138;55.082;38.804;2023-03-13T12:01:53;3.47;;;2.50;;
74630;SDS011;63138;55.082;38.804;2023-03-13T12:04:25;3.30;;;2.70;;
74630;SDS011;63138;55.082;38.804;2023-03-13T12:06:58;4.75;;;2.80;;
74630;SDS011;63138;55.082;38.804;2023-03-13T12:09:56;3.30;;;2.60;;
74630;SDS011;63138;55.082;38.804;2023-03-13T12:17:59;4.70;;;2.33;;
74630;SDS011;63138;55.082;38.804;2023-03-13T12:20:50;4.80;;;2.70;;
74630;SDS011;63138;55.082;38.804;2023-03-13T12:26:15;4.10;;;3.70;;
74630;SDS011;63138;55.082;38.804;2023-03-13T12:29:05;3.95;;;3.28;;
74630;SDS011;63138;55.082;38.804;2023-03-13T12:31:47;4.25;;;2.90;;
74630;SDS011;63138;55.082;38.804;2023-03-13T12:34:26;3.63;;;2.90;;
74630;SDS011;63138;55.082;38.804;2023-03-13T12:37:07;3.53;;;3.22;;
74630;SDS011;63138;55.082;38.804;2023-03-13T12:40:05;4.13;;;3.40;;
74630;SDS011;63138;55.082;38.804;2023-03-13T12:42:50;4.05;;;3.67;;
74630;SDS011;63138;55.082;38.804;2023-03-13T12:45:23;3.92;;;3.22;;
74630;SDS011;63138;55.082;38.804;2023-03-13T12:50:44;3.05;;;2.65;;
74630;SDS011;63138;55.082;38.804;2023-03-13T12:58:51;3.13;;;2.55;;
74630;SDS011;63138;55.082;38.804;2023-03-13T13:01:34;2.80;;;2.45;;
74630;SDS011;63138;55.082;38.804;2023-03-13T13:04:06;4.07;;;2.70;;
74630;SDS011;63138;55.082;38.804;2023-03-13T13:06:50;3.60;;;2.40;;
74630;SDS011;63138;55.082;38.804;2023-03-13T13:13:27;3.03;;;2.40;;
74630;SDS011;63138;55.082;38.804;2023-03-13T13:15:44;3.17;;;2.50;;
74630;SDS011;63138;55.082;38.804;2023-03-13T13:23:31;3.08;;;2.60;;
74630;SDS011;63138;55.082;38.804;2023-03-13T13:28:59;3.22;;;2.80;;
74630;SDS011;63138;55.082;38.804;2023-03-13T13:37:35;3.00;;;2.60;;
74630;SDS011;63138;55.082;38.804;2023-03-13T13:39:48;3.72;;;3.22;;
74630;SDS011;63138;55.082;38.804;2023-03-13T13:47:25;3.60;;;2.90;;
74630;SDS011;63138;55.082;38.804;2023-03-13T13:49:54;3.17;;;2.85;;
74630;SDS011;63138;55.082;38.804;2023-03-13T13:52:38;4.45;;;3.00;;
74630;SDS011;63138;55.082;38.804;2023-03-13T13:58:02;3.92;;;3.17;;
74630;SDS011;63138;55.082;38.804;2023-03-13T14:00:38;4.73;;;3.60;;
74630;SDS011;63138;55.082;38.804;2023-03-13T14:03:50;3.72;;;3.33;;
74630;SDS011;63138;55.082;38.804;2023-03-13T14:06:01;4.28;;;3.13;;
74630;SDS011;63138;55.082;38.804;2023-03-13T14:08:41;6.38;;;2.55;;
74630;SDS011;63138;55.082;38.804;2023-03-13T14:11:23;3.15;;;2.53;;
74630;SDS011;63138;55.082;38.804;2023-03-13T14:14:14;3.87;;;2.80;;
74630;SDS011;63138;55.082;38.804;2023-03-13T14:16:58;4.93;;;3.20;;
74630;SDS011;63138;55.082;38.804;2023-03-13T14:19:26;3.30;;;3.00;;
74630;SDS011;63138;55.082;38.804;2023-03-13T14:22:03;4.55;;;3.20;;
74630;SDS011;63138;55.082;38.804;2023-03-13T14:24:30;4.35;;;2.97;;
74630;SDS011;63138;55.082;38.804;2023-03-13T14:26:56;4.50;;;3.47;;
74630;SDS011;63138;55.082;38.804;2023-03-13T14:29:23;4.57;;;2.90;;
74630;SDS011;63138;55.082;38.804;2023-03-13T14:31:57;4.75;;;3.42;;
74630;SDS011;63138;55.082;38.804;2023-03-13T14:34:25;3.55;;;2.70;;
74630;SDS011;63138;55.082;38.804;2023-03-13T14:36:53;7.87;;;3.43;;
74630;SDS011;63138;55.082;38.804;2023-03-13T14:42:11;3.17;;;2.25;;
74630;SDS011;63138;55.082;38.804;2023-03-13T14:44:40;3.65;;;2.25;;
74630;SDS011;63138;55.082;38.804;2023-03-13T14:47:15;3.70;;;2.72;;
74630;SDS011;63138;55.082;38.804;2023-03-13T14:49:54;5.40;;;2.00;;
74630;SDS011;63138;55.082;38.804;2023-03-13T14:52:25;3.75;;;2.42;;
74630;SDS011;63138;55.082;38.804;2023-03-13T14:54:56;3.70;;;2.70;;
74630;SDS011;63138;55.082;38.804;2023-03-13T14:57:29;3.00;;;2.22;;
74630;SDS011;63138;55.082;38.804;2023-03-13T15:00:20;4.53;;;2.75;;
74630;SDS011;63138;55.082;38.804;2023-03-13T15:06:02;3.67;;;2.20;;
74630;SDS011;63138;55.082;38.804;2023-03-13T15:08:41;4.05;;;2.40;;
74630;SDS011;63138;55.082;38.804;2023-03-13T15:11:29;2.90;;;2.17;;
74630;SDS011;63138;55.082;38.804;2023-03-13T15:13:58;4.18;;;2.50;;
74630;SDS011;63138;55.082;38.804;2023-03-13T15:16:24;3.47;;;2.47;;
74630;SDS011;63138;55.082;38.804;2023-03-13T15:18:51;4.63;;;2.20;;
74630;SDS011;63138;55.082;38.804;2023-03-13T15:21:28;4.07;;;2.40;;
74630;SDS011;63138;55.082;38.804;2023-03-13T15:23:59;3.78;;;2.35;;
74630;SDS011;63138;55.082;38.804;2023-03-13T15:26:26;3.15;;;2.50;;
74630;SDS011;63138;55.082;38.804;2023-03-13T15:28:53;4.27;;;2.67;;
74630;SDS011;63138;55.082;38.804;2023-03-13T15:31:21;4.13;;;2.70;;
74630;SDS011;63138;55.082;38.804;2023-03-13T15:33:53;5.10;;;2.67;;
74630;SDS011;63138;55.082;38.804;2023-03-13T15:36:21;3.20;;;2.30;;
74630;SDS011;63138;55.082;38.804;2023-03-13T15:38:47;3.87;;;2.40;;
74630;SDS011;63138;55.082;38.804;2023-03-13T15:41:12;4.22;;;2.67;;
74630;SDS011;63138;55.082;38.804;2023-03-13T15:43:38;3.40;;;2.35;;
74630;SDS011;63138;55.082;38.804;2023-03-13T15:46:05;3.60;;;2.67;;
74630;SDS011;63138;55.082;38.804;2023-03-13T15:48:35;2.83;;;2.20;;
74630;SDS011;63138;55.082;38.804;2023-03-13T15:51:02;3.75;;;2.45;;
74630;SDS011;63138;55.082;38.804;2023-03-13T15:53:37;4.60;;;2.40;;
74630;SDS011;63138;55.082;38.804;2023-03-13T15:56:14;3.85;;;2.47;;
74630;SDS011;63138;55.082;38.804;2023-03-13T15:58:42;3.80;;;2.67;;
74630;SDS011;63138;55.082;38.804;2023-03-13T16:01:12;3.25;;;2.45;;
74630;SDS011;63138;55.082;38.804;2023-03-13T16:03:39;4.63;;;2.63;;
74630;SDS011;63138;55.082;38.804;2023-03-13T16:06:15;3.93;;;2.77;;
74630;SDS011;63138;55.082;38.804;2023-03-13T16:08:43;3.60;;;2.88;;
74630;SDS011;63138;55.082;38.804;2023-03-13T16:11:13;5.38;;;3.13;;
74630;SDS011;63138;55.082;38.804;2023-03-13T16:13:41;4.88;;;2.47;;
74630;SDS011;63138;55.082;38.804;2023-03-13T16:16:17;4.63;;;2.83;;
74630;SDS011;63138;55.082;38.804;2023-03-13T16:18:49;6.23;;;2.97;;
74630;SDS011;63138;55.082;38.804;2023-03-13T16:21:21;3.85;;;2.70;;
74630;SDS011;63138;55.082;38.804;2023-03-13T16:23:49;3.03;;;2.28;;
74630;SDS011;63138;55.082;38.804;2023-03-13T16:26:33;3.38;;;2.67;;
74630;SDS011;63138;55.082;38.804;2023-03-13T16:29:00;3.80;;;2.40;;
74630;SDS011;63138;55.082;38.804;2023-03-13T16:31:27;3.67;;;2.70;;
74630;SDS011;63138;55.082;38.804;2023-03-13T16:33:56;3.40;;;2.40;;
74630;SDS011;63138;55.082;38.804;2023-03-13T16:36:24;3.83;;;2.60;;
74630;SDS011;63138;55.082;38.804;2023-03-13T16:38:52;3.47;;;2.67;;
74630;SDS011;63138;55.082;38.804;2023-03-13T16:41:21;5.17;;;2.80;;
74630;SDS011;63138;55.082;38.804;2023-03-13T16:43:49;5.28;;;2.35;;
74630;SDS011;63138;55.082;38.804;2023-03-13T16:46:16;2.97;;;2.55;;
74630;SDS011;63138;55.082;38.804;2023-03-13T16:48:44;3.28;;;2.40;;
74630;SDS011;63138;55.082;38.804;2023-03-13T16:51:15;6.43;;;2.67;;
74630;SDS011;63138;55.082;38.804;2023-03-13T16:53:44;3.73;;;2.80;;
74630;SDS011;63138;55.082;38.804;2023-03-13T16:58:58;3.88;;;2.70;;
74630;SDS011;63138;55.082;38.804;2023-03-13T17:01:25;2.83;;;2.33;;
74630;SDS011;63138;55.082;38.804;2023-03-13T17:03:57;3.60;;;2.55;;